createdAt,value
2022-11-08T00:01:33.463Z,10.219330269010971
2022-11-08T00:04:18.582Z,10.191712377520252
2022-11-08T00:21:16.399Z,10.205200183941997
2022-11-08T00:24:16.663Z,10.131338411449633
2022-11-08T00:27:18.449Z,10.135834343708485
2022-11-08T00:31:16.510Z,10.113354684642491
2022-11-08T00:34:17.298Z,10.047200291710032
2022-11-08T00:37:17.843Z,9.980403672067041
2022-11-08T00:41:16.389Z,9.912964827132328
2022-11-08T00:44:17.214Z,9.918103023077219
2022-11-08T00:47:16.764Z,9.877639737889695
2022-11-08T00:51:16.004Z,9.892412046263143
2022-11-08T00:54:18.882Z,9.82176189754109
2022-11-08T00:57:16.701Z,9.848737402377537
2022-11-08T01:01:18.453Z,9.873143818427433
2022-11-08T01:04:18.862Z,9.882777931833697
2022-11-08T01:07:17.232Z,9.838461018636826
2022-11-08T01:11:18.328Z,9.88791612606874
2022-11-08T01:14:16.545Z,9.85387559468445
2022-11-08T01:17:16.222Z,9.83075373159527
2022-11-08T01:21:17.274Z,9.857729239105629
2022-11-08T01:24:16.552Z,9.756892263988266
2022-11-08T01:27:16.636Z,9.721567235522617
2022-11-08T01:31:19.332Z,9.810843243102136
2022-11-08T01:34:17.521Z,9.759461357504188
2022-11-08T01:37:17.378Z,9.695234041434015
2022-11-08T01:41:17.752Z,9.669543127738871
2022-11-08T01:44:17.115Z,9.651559492481464
2022-11-08T01:47:16.166Z,9.57448681033129
2022-11-08T01:51:20.173Z,9.609811781521511
2022-11-08T01:54:20.557Z,9.53851958107116
2022-11-08T01:57:21.503Z,9.5539341061507
2022-11-08T02:01:16.255Z,9.50062555138511
2022-11-08T02:04:16.951Z,9.471081064645933
2022-11-08T02:07:21.184Z,9.417130287603594
2022-11-08T02:11:17.437Z,9.410065307271726
2022-11-08T02:14:17.201Z,9.393366265038276
2022-11-08T02:17:17.161Z,9.394650806639401
2022-11-08T02:21:25.761Z,9.453739739954472
2022-11-08T02:24:17.679Z,9.38052085002746
2022-11-08T02:27:17.080Z,9.31372472129333
2022-11-08T02:31:18.314Z,9.34326915678248
2022-11-08T02:34:17.330Z,9.35226094340651
2022-11-08T02:37:19.303Z,9.28931845575571
2022-11-08T02:41:15.747Z,9.30280612800425
2022-11-08T02:44:16.461Z,9.279684405377429
2022-11-08T02:47:16.650Z,9.22316466376733
2022-11-08T02:51:16.584Z,9.173709918746317
2022-11-08T02:54:17.174Z,9.172425380273854
2022-11-08T02:57:16.930Z,9.193620267395545
2022-11-08T03:01:17.445Z,9.157010920023094
2022-11-08T03:04:17.679Z,9.094710836529794
2022-11-08T03:07:22.137Z,9.120401587425386
2022-11-08T03:11:16.645Z,9.185913035141947
2022-11-08T03:14:16.896Z,9.114621167839505
2022-11-08T03:17:17.445Z,9.087645881309072
2022-11-08T03:21:17.149Z,9.072873703989263
2022-11-08T03:24:16.758Z,9.047182966554193
2022-11-08T03:27:19.859Z,9.010573678280707
2022-11-08T03:31:15.956Z,9.042044819940292
2022-11-08T03:34:16.338Z,8.988736565994623
2022-11-08T03:37:16.738Z,9.015711823111996
2022-11-08T03:41:15.732Z,9.045256161539873
2022-11-08T03:44:16.300Z,8.946989160079193
2022-11-08T03:47:16.166Z,8.911022179620431
2022-11-08T03:51:17.342Z,8.975891208281974
2022-11-08T03:54:16.965Z,8.905884040719048
2022-11-08T03:57:16.950Z,8.894323229255042
2022-11-08T04:01:16.243Z,8.943135554347919
2022-11-08T04:04:16.612Z,8.932217005665006
2022-11-08T04:07:16.365Z,8.905884040719048
2022-11-08T04:21:23.893Z,8.77165026504117
2022-11-08T04:24:16.885Z,8.772934797838388
2022-11-08T04:27:16.803Z,8.83009652572955
2022-11-08T04:31:19.614Z,8.82816972532637
2022-11-08T04:34:17.917Z,8.80055225737824
2022-11-08T04:37:17.882Z,8.804405857052279
2022-11-08T04:41:19.075Z,8.847437731199898
2022-11-08T04:44:18.979Z,8.805048123680535
2022-11-08T04:47:17.038Z,8.80376359042857
2022-11-08T04:51:18.124Z,8.860283070722653
2022-11-08T04:54:16.695Z,8.858356269678278
2022-11-08T04:57:16.386Z,8.80376359042857
2022-11-08T05:01:17.918Z,8.805048123680535
2022-11-08T05:04:16.479Z,8.789633725857493
2022-11-08T05:07:16.334Z,8.742748281912736
2022-11-08T05:11:18.592Z,8.754309074059075
2022-11-08T05:14:16.429Z,8.70999271216606
2022-11-08T05:17:16.731Z,8.713204042010421
2022-11-08T05:31:16.532Z,8.694578330495641
2022-11-08T05:34:16.471Z,8.632920830007425
2022-11-08T05:37:17.153Z,8.627782706858488
2022-11-08T05:41:19.826Z,8.666318637569566
2022-11-08T05:44:17.619Z,8.695862862201466
2022-11-08T05:47:16.667Z,8.706139116502891
2022-11-08T05:51:18.338Z,8.692009267138564
2022-11-08T05:54:16.816Z,8.632920830007425
2022-11-08T05:57:21.132Z,8.603376625875535
2022-11-08T06:01:18.227Z,8.688155672239372
2022-11-08T06:04:16.933Z,8.604661156289875
2022-11-08T06:07:16.696Z,8.596311708921803
2022-11-08T06:11:18.867Z,8.625855910752671
2022-11-08T06:14:17.025Z,8.602734360675186
2022-11-08T06:17:17.127Z,8.550710894549047
2022-11-08T06:21:17.947Z,8.56740978165908
2022-11-08T06:24:16.391Z,8.539150128350594
2022-11-08T06:27:16.916Z,8.508963690223117
2022-11-08T06:31:15.622Z,8.496118400449722
2022-11-08T06:34:16.206Z,8.480061790790932
2022-11-08T06:37:20.425Z,8.446021787713926
2022-11-08T06:41:18.984Z,8.47556594059579
2022-11-08T06:44:16.935Z,8.483915376849836
2022-11-08T06:47:17.215Z,8.523093511074785
2022-11-08T06:51:17.131Z,8.582824141719902
2022-11-08T06:54:18.182Z,8.584108671843206
2022-11-08T06:57:16.791Z,8.627140441485334
2022-11-08T07:01:17.015Z,8.66503410628211
2022-11-08T07:04:16.929Z,8.701643255102772
2022-11-08T07:07:16.774Z,8.722838032225628
2022-11-08T07:11:16.539Z,8.80633265695069
2022-11-08T07:14:16.374Z,8.862852138845483
2022-11-08T07:17:16.576Z,8.923225260677645
2022-11-08T07:21:16.442Z,9.044613893210862
2022-11-08T07:24:16.518Z,9.08507680681978
2022-11-08T07:27:16.594Z,9.201327500303979
2022-11-08T07:31:21.212Z,9.288676185698659
2022-11-08T07:34:17.663Z,9.404927140103245
2022-11-08T07:37:17.069Z,9.494202836058047
2022-11-08T07:41:16.600Z,9.616234505034026
2022-11-08T07:44:16.609Z,9.73377042561915
2022-11-08T07:47:16.213Z,9.822404171372545
2022-11-08T07:51:16.308Z,9.97590774751161
2022-11-08T07:54:16.890Z,10.102435995106134
2022-11-08T07:57:16.986Z,10.207769290154465
2022-11-08T08:01:15.903Z,10.343289746010214
2022-11-08T08:04:18.085Z,10.48266407529336
2022-11-08T08:07:20.160Z,10.612404426794091
2022-11-08T08:11:15.839Z,10.744071804907525
2022-11-08T08:14:16.812Z,10.859040062084386
2022-11-08T08:17:16.326Z,10.990707798174935
2022-11-08T08:21:16.207Z,11.114668329246706
2022-11-08T08:24:17.145Z,11.235417610459626
2022-11-08T08:27:17.793Z,11.334971660002429
2022-11-08T08:31:16.736Z,11.464713230471625
2022-11-08T08:34:18.025Z,11.569405821126201
2022-11-08T08:37:17.453Z,11.694009430054574
2022-11-08T08:41:16.202Z,11.840451003647468
2022-11-08T08:44:17.510Z,11.93422511791032
2022-11-08T08:47:16.425Z,12.044698856337709
2022-11-08T08:51:36.214Z,12.187929543069277
2022-11-08T08:54:18.588Z,12.32923358117414
2022-11-08T08:57:18.447Z,12.487237448070754
2022-11-08T09:01:40.077Z,12.728739825172033
2022-11-08T09:04:18.161Z,12.868117819436884
2022-11-08T09:07:18.356Z,12.991438619642576
2022-11-08T09:11:17.332Z,13.228446253221865
2022-11-08T09:14:16.563Z,13.353694439731772
2022-11-08T09:17:16.583Z,13.542530493971208
2022-11-08T09:21:16.603Z,13.81550847806002
2022-11-08T09:24:17.876Z,14.060868214104357
2022-11-08T09:27:17.319Z,14.240071163153335
2022-11-08T09:31:16.425Z,14.553516598920396
2022-11-08T09:34:20.520Z,14.753274398598387
2022-11-08T09:37:17.147Z,14.931836405343438
2022-11-08T09:43:19.182Z,15.25620353968734
2022-11-08T09:45:01.793Z,15.503494114273144
2022-11-08T09:47:22.137Z,15.696188535748751
2022-11-08T10:01:17.682Z,17.190226505079863
2022-11-08T10:04:18.643Z,17.478631336478067
2022-11-08T10:07:27.526Z,17.72207399009285
2022-11-08T10:11:31.812Z,18.0772830444188
2022-11-08T10:14:31.441Z,18.24878592469913
2022-11-08T10:17:33.828Z,18.451121200300985
2022-11-08T10:21:31.412Z,18.7138365647691
2022-11-08T10:24:26.049Z,18.966917610789913
2022-11-08T10:27:31.772Z,19.211648938345025
2022-11-08T10:31:18.098Z,19.51162235838283
2022-11-08T10:34:33.086Z,19.703040605144725
2022-11-08T10:37:18.303Z,19.891889875206196
2022-11-08T10:41:22.517Z,20.168098699142227
2022-11-08T10:44:19.857Z,20.37686174026785
2022-11-08T10:47:22.544Z,20.513039736714926
2022-11-08T10:51:16.122Z,20.836142121494866
2022-11-08T10:54:50.663Z,20.972963160023575
2022-11-08T10:57:23.667Z,21.130339727082266
2022-11-08T11:01:18.598Z,21.372507467529793
2022-11-08T11:04:26.569Z,21.533738867982994
2022-11-08T11:07:29.850Z,21.689831691963263
2022-11-08T11:11:23.713Z,21.9352127235441
2022-11-08T11:14:22.611Z,22.039275036793335
2022-11-08T11:17:17.980Z,22.21142776765082
2022-11-08T11:21:18.084Z,22.379726648623183
2022-11-08T11:24:30.375Z,22.53646329178009
2022-11-08T11:27:22.589Z,22.62832136831357
2022-11-08T11:31:17.016Z,22.787627903340855
2022-11-08T11:34:35.277Z,22.917385852263486
2022-11-08T11:37:24.710Z,22.900684323680707
2022-11-08T11:41:21.342Z,23.078619997821807
2022-11-08T11:44:21.188Z,23.08889788135566
2022-11-08T11:47:23.833Z,23.217371523754263
2022-11-08T11:51:16.286Z,23.33620980491987
2022-11-08T11:54:16.401Z,23.385672270518626
2022-11-08T11:57:25.533Z,23.338136913464403
2022-11-08T12:01:28.725Z,23.464041427058692
2022-11-08T12:04:47.212Z,23.577098690172715
2022-11-08T12:07:21.036Z,23.657395127365543
2022-11-08T12:11:37.654Z,23.747969593797826
2022-11-08T12:14:30.466Z,23.76916788623139
2022-11-08T12:18:01.950Z,23.86231195712462
2022-11-08T12:21:28.066Z,23.916271324690022
2022-11-08T12:24:28.568Z,23.94839001109394
2022-11-08T12:27:27.863Z,23.944535768125206
2022-11-08T12:31:25.560Z,23.934257787675598
2022-11-08T12:34:21.821Z,24.005561301021316
2022-11-08T12:37:29.266Z,24.060163128400745
2022-11-08T12:41:24.768Z,24.108983613643794
2022-11-08T12:44:43.216Z,24.126327739724456
2022-11-08T12:47:29.146Z,24.206624662928515
2022-11-08T12:51:25.043Z,24.161658377180355
2022-11-08T12:54:22.371Z,24.14559899481328
2022-11-08T12:57:18.592Z,24.253518098944276
2022-11-08T13:01:19.690Z,24.237458700319984
2022-11-08T13:04:44.827Z,24.28692165718685
2022-11-08T13:07:25.920Z,24.20790941427731
2022-11-08T13:11:23.952Z,24.17836013785709
2022-11-08T13:14:18.477Z,24.237458700319984
2022-11-08T13:17:20.160Z,24.15908887581063
2022-11-08T13:21:37.625Z,24.18928052150013
2022-11-08T13:24:48.409Z,24.179002513329124
2022-11-08T13:27:30.642Z,24.02740202803043
2022-11-08T13:31:21.363Z,23.800644147768615
2022-11-08T13:34:27.791Z,23.911774709500698
2022-11-08T13:37:32.592Z,23.89186113062642
2022-11-08T13:41:17.997Z,23.841756016016006
2022-11-08T13:44:58.043Z,23.753108573326973
2022-11-08T13:47:52.730Z,23.706215395912388
2022-11-08T13:51:26.504Z,23.76210178820329
2022-11-08T13:55:42.298Z,23.643262949267317
2022-11-08T13:57:18.963Z,23.577741061388316
2022-11-08T14:01:57.783Z,23.347772456800975
2022-11-08T14:04:25.632Z,23.300237119601025
2022-11-08T14:07:25.678Z,23.22700705426696
2022-11-08T14:11:58.358Z,23.188464938355263
2022-11-08T14:14:30.665Z,23.164054940078586
2022-11-08T14:17:29.145Z,23.124228114882225
2022-11-08T14:21:19.427Z,23.122943378876606
2022-11-08T14:24:22.453Z,23.211590205937775
2022-11-08T14:27:32.871Z,23.216729155089798
2022-11-08T14:31:26.263Z,23.1826836223805
2022-11-08T14:34:35.769Z,23.176259938396107
2022-11-08T14:37:22.981Z,23.16983625486646
2022-11-08T14:41:24.079Z,23.050355824106372
2022-11-08T14:44:17.508Z,23.040077944938094
2022-11-08T14:47:26.633Z,22.96877519026102
2022-11-08T14:51:18.468Z,22.876916769074523
2022-11-08T14:54:21.337Z,22.867281275737422
2022-11-08T14:57:35.794Z,22.688703651094784
2022-11-08T15:01:22.416Z,22.588494778257974
2022-11-08T15:04:20.813Z,22.459379662951687
2022-11-08T15:07:19.654Z,22.42983095592972
2022-11-08T15:11:30.818Z,22.244830574159643
2022-11-08T15:14:19.972Z,22.14012566412648
2022-11-08T15:17:31.356Z,21.99687926513725
2022-11-08T15:21:27.273Z,21.87611566051055
2022-11-08T15:24:24.749Z,21.69304348128435
2022-11-08T15:27:17.375Z,21.49327040189528
2022-11-08T15:31:17.437Z,21.353236801384263
2022-11-08T15:34:20.923Z,21.129055019307362
2022-11-08T15:37:20.314Z,21.044906699666534
2022-11-08T15:41:35.468Z,20.807878646289556
2022-11-08T15:44:21.099Z,20.550938366420542
2022-11-08T15:47:34.982Z,20.387781666407772
2022-11-08T15:51:20.248Z,20.130200229343973
2022-11-08T15:54:20.074Z,19.87197717853269
2022-11-08T15:57:19.012Z,19.70753701176873
2022-11-08T16:01:20.275Z,19.47051245202465
2022-11-08T16:04:17.737Z,19.272028947453144
2022-11-08T16:07:18.341Z,19.31699281012552
2022-11-08T16:11:22.015Z,19.029866813085484
2022-11-08T16:14:19.407Z,18.870566875532766
2022-11-08T16:17:17.090Z,18.61042040141765
2022-11-08T16:21:16.533Z,18.56481455316907
2022-11-08T16:24:17.408Z,18.28218727243302
2022-11-08T16:27:16.989Z,18.14665495694826
2022-11-08T16:31:19.646Z,18.13188130446442
2022-11-08T16:34:18.764Z,18.02718114057934
2022-11-08T16:37:18.362Z,17.71115438477718
2022-11-08T16:41:17.992Z,17.72978194757752
2022-11-08T16:44:17.544Z,17.59103881304336
2022-11-08T16:47:18.872Z,17.54800279127703
2022-11-08T16:51:19.314Z,17.47092340033014
2022-11-08T16:54:19.904Z,17.221700484431132
2022-11-08T16:57:34.944Z,17.071396273306163
2022-11-08T17:01:21.629Z,17.114432068999395
2022-11-08T17:04:17.002Z,16.871633369548455
2022-11-08T17:07:17.516Z,16.750234263483435
2022-11-08T17:11:18.410Z,16.65581284884838
2022-11-08T17:14:17.499Z,16.60121547706076
2022-11-08T17:17:17.131Z,16.422007864104764
2022-11-08T17:21:42.882Z,16.371264554132722
2022-11-08T17:24:21.774Z,16.13489102853673
2022-11-08T17:27:20.044Z,16.028908533600134
2022-11-08T17:31:18.117Z,15.928707015883356
2022-11-08T17:34:16.856Z,15.876037031714167
2022-11-08T17:37:17.738Z,15.838782671130412
2022-11-08T17:41:17.535Z,15.771981787012283
2022-11-08T17:44:17.345Z,15.578644889965654
2022-11-08T17:47:17.077Z,15.455962886570433
2022-11-08T17:51:17.034Z,15.391731537346004
2022-11-08T17:54:17.338Z,15.281253723054487
2022-11-08T17:57:17.044Z,15.170133731597161
2022-11-08T18:01:19.229Z,15.102691028585923
2022-11-08T18:04:19.398Z,14.971017324345667
2022-11-08T18:07:20.851Z,14.85989771287068
2022-11-08T18:11:16.777Z,14.852189999203347
2022-11-08T18:14:24.206Z,14.721158967048632
2022-11-08T18:17:17.162Z,14.667205067638225
2022-11-08T18:21:17.052Z,14.525255080783973
2022-11-08T18:24:16.858Z,14.439828272670365
2022-11-08T18:27:16.333Z,14.337059286795647
2022-11-08T18:41:20.833Z,14.161709973423058
2022-11-08T18:44:18.001Z,14.02939533128083
2022-11-08T18:47:16.872Z,13.890015552878413
2022-11-08T18:51:18.889Z,13.861754241433754
2022-11-08T18:54:17.050Z,13.777612661758031
2022-11-08T18:57:16.832Z,13.70310567925335
2022-11-08T19:01:16.828Z,13.67869823277324
2022-11-08T19:04:18.148Z,13.585564615748535
2022-11-08T19:07:16.990Z,13.500138692477776
2022-11-08T19:11:20.573Z,13.543172794146177
2022-11-08T19:14:16.819Z,13.501423292231994
2022-11-08T19:17:17.601Z,13.411501353365384
2022-11-08T19:21:17.649Z,13.380670994843603
2022-11-08T19:24:16.318Z,13.324148698099089
2022-11-08T19:27:16.300Z,13.234869232939037
2022-11-08T19:31:20.327Z,13.211746508085435
2022-11-08T19:34:18.306Z,13.18926608679467
2022-11-08T19:37:20.204Z,13.131459314769382
2022-11-08T19:41:19.144Z,13.095490675210385
2022-11-08T19:44:16.979Z,13.03190329373765
2022-11-08T19:47:17.340Z,13.00685373145534
2022-11-08T19:51:19.105Z,12.940054932517523
2022-11-08T19:54:17.504Z,12.88224831929001
2022-11-08T19:57:16.840Z,12.828295513510602
2022-11-08T20:01:18.874Z,12.773058150359429
2022-11-08T20:04:18.621Z,12.676071698754914
2022-11-08T20:07:17.550Z,12.676071698754914
2022-11-08T20:11:19.137Z,12.701763463918997
2022-11-08T20:14:16.446Z,12.647810765478152
2022-11-08T20:17:17.222Z,12.581012230912256
2022-11-08T20:21:17.267Z,12.555320499945173
2022-11-08T20:24:16.670Z,12.505863938317635
2022-11-08T20:27:17.071Z,12.463472621239271
2022-11-08T20:31:22.724Z,12.487879740774224
2022-11-08T20:34:18.770Z,12.485310569987632
2022-11-08T20:37:17.688Z,12.478887643339476
2022-11-08T20:41:17.991Z,12.408235480223084
2022-11-08T20:44:17.579Z,12.366486500608971
2022-11-08T20:47:16.486Z,12.394747346246822
2022-11-08T20:51:18.494Z,12.309322544301176
2022-11-08T20:54:16.765Z,12.294549842348442
2022-11-08T20:57:16.545Z,12.229678440510543
2022-11-08T21:01:18.752Z,12.200775355620227
2022-11-08T21:04:16.749Z,12.144896084277207
2022-11-08T21:08:01.452Z,12.168018537210083
2022-11-08T21:11:17.578Z,12.133977150218652
2022-11-08T21:14:16.699Z,12.051121752244944
2022-11-08T21:17:21.885Z,12.00808835834987
2022-11-08T21:21:17.871Z,11.995884862303864
2022-11-08T21:24:17.464Z,11.914314167734938
2022-11-08T21:27:18.355Z,11.90853357011547
2022-11-08T21:41:17.830Z,12.08130936910029
2022-11-08T21:44:16.976Z,11.93422511791032
2022-11-08T21:47:17.365Z,11.812832618610354
2022-11-08T21:51:16.546Z,11.766587899700335
2022-11-08T21:54:17.345Z,11.743465549085613
2022-11-08T21:57:17.115Z,11.696578578431218
2022-11-08T22:01:17.430Z,11.665106515830939
2022-11-08T22:04:16.713Z,11.578397828411834
2022-11-08T22:07:17.391Z,11.656114499950581
2022-11-08T22:11:16.731Z,11.609869860930576
2022-11-08T22:14:18.066Z,11.609869860930576
2022-11-08T22:17:16.884Z,11.52958408528939
2022-11-08T22:21:48.576Z,11.553990953567336
2022-11-08T22:24:19.241Z,11.525088083954415
2022-11-08T22:27:17.045Z,11.473705227379924
2022-11-08T22:31:18.404Z,11.546925806811577
2022-11-08T22:34:18.468Z,11.430029822174493
2022-11-08T22:37:18.126Z,11.383143013519293
2022-11-08T22:41:19.642Z,11.465997801403955
2022-11-08T22:44:17.545Z,11.344605928659439
2022-11-08T22:47:17.192Z,11.329833383803726
2022-11-08T22:51:17.041Z,11.320841401156304
2022-11-08T22:54:17.053Z,11.240555881310502
2022-11-08T22:57:17.056Z,11.259824399593345
2022-11-08T23:01:16.319Z,11.228352488514883
2022-11-08T23:04:16.797Z,11.212295395232285
2022-11-08T23:07:16.780Z,11.192384603509073
2022-11-08T23:31:37.017Z,11.193026887044834
2022-11-08T23:34:17.101Z,11.077415923867374
2022-11-08T23:37:17.904Z,11.054936031470515
2022-11-08T23:51:17.902Z,11.045944076071555
2022-11-08T23:54:17.958Z,10.96437423566822
2022-11-08T23:57:17.248Z,10.953455443700022
